sensor_id;sensor_type;location;lat;lon;timestamp;pressure;altitude;pressure_sealevel;temperature;humidity
47935;BME280;33704;43.592;-79.628;2023-12-22T00:00:23;101443.46;;;33.60;17.39
47935;BME280;33704;43.592;-79.628;2023-12-22T00:00:55;101444.97;;;33.57;17.59
47935;BME280;33704;43.592;-79.628;2023-12-22T00:01:27;101448.13;;;33.56;17.70
47935;BME280;33704;43.592;-79.628;2023-12-22T00:01:59;101449.48;;;33.59;17.69
47935;BME280;33704;43.592;-79.628;2023-12-22T00:02:31;101447.55;;;33.59;17.74
47935;BME280;33704;43.592;-79.628;2023-12-22T00:03:04;101446.60;;;33.61;17.87
47935;BME280;33704;43.592;-79.628;2023-12-22T00:03:35;101445.49;;;33.61;17.98
47935;BME280;33704;43.592;-79.628;2023-12-22T00:04:07;101442.22;;;33.59;17.89
47935;BME280;33704;43.592;-79.628;2023-12-22T00:04:39;101446.53;;;33.61;18.06
47935;BME280;33704;43.592;-79.628;2023-12-22T00:05:11;101446.00;;;33.58;18.12
47935;BME280;33704;43.592;-79.628;2023-12-22T00:05:43;101448.11;;;33.59;18.21
47935;BME280;33704;43.592;-79.628;2023-12-22T00:06:15;101447.66;;;33.61;18.32
47935;BME280;33704;43.592;-79.628;2023-12-22T00:06:47;101446.37;;;33.61;18.29
47935;BME280;33704;43.592;-79.628;2023-12-22T00:07:19;101443.21;;;33.61;18.38
47935;BME280;33704;43.592;-79.628;2023-12-22T00:07:51;101440.90;;;33.61;18.34
47935;BME280;33704;43.592;-79.628;2023-12-22T00:08:23;101437.75;;;33.61;18.25
47935;BME280;33704;43.592;-79.628;2023-12-22T00:08:55;101436.40;;;33.60;17.47
47935;BME280;33704;43.592;-79.628;2023-12-22T00:09:26;101442.13;;;33.60;17.67
47935;BME280;33704;43.592;-79.628;2023-12-22T00:09:58;101440.05;;;33.59;17.94
47935;BME280;33704;43.592;-79.628;2023-12-22T00:10:30;101436.39;;;33.61;18.62
47935;BME280;33704;43.592;-79.628;2023-12-22T00:11:02;101432.32;;;33.68;18.56
47935;BME280;33704;43.592;-79.628;2023-12-22T00:11:34;101429.23;;;33.67;18.62
47935;BME280;33704;43.592;-79.628;2023-12-22T00:12:06;101427.58;;;33.67;18.85
47935;BME280;33704;43.592;-79.628;2023-12-22T00:12:38;101427.01;;;33.62;19.14
47935;BME280;33704;43.592;-79.628;2023-12-22T00:13:10;101428.25;;;33.62;19.00
47935;BME280;33704;43.592;-79.628;2023-12-22T00:13:42;101427.22;;;33.65;19.06
47935;BME280;33704;43.592;-79.628;2023-12-22T00:14:14;101426.52;;;33.60;19.15
47935;BME280;33704;43.592;-79.628;2023-12-22T00:14:46;101427.00;;;33.64;19.39
47935;BME280;33704;43.592;-79.628;2023-12-22T00:15:18;101432.19;;;33.60;18.01
47935;BME280;33704;43.592;-79.628;2023-12-22T00:15:49;101432.35;;;33.53;17.20
47935;BME280;33704;43.592;-79.628;2023-12-22T00:16:22;101424.36;;;33.45;16.39
47935;BME280;33704;43.592;-79.628;2023-12-22T00:16:54;101428.93;;;33.34;16.05
47935;BME280;33704;43.592;-79.628;2023-12-22T00:17:26;101423.88;;;33.13;15.96
47935;BME280;33704;43.592;-79.628;2023-12-22T00:17:57;101420.82;;;33.03;15.83
47935;BME280;33704;43.592;-79.628;2023-12-22T00:18:29;101420.73;;;32.95;15.54
47935;BME280;33704;43.592;-79.628;2023-12-22T00:19:02;101420.19;;;32.90;15.37
47935;BME280;33704;43.592;-79.628;2023-12-22T00:19:34;101420.96;;;32.80;15.65
47935;BME280;33704;43.592;-79.628;2023-12-22T00:20:07;101417.41;;;32.79;15.95
47935;BME280;33704;43.592;-79.628;2023-12-22T00:20:39;101418.59;;;32.76;16.84
47935;BME280;33704;43.592;-79.628;2023-12-22T00:21:11;101421.40;;;32.73;17.43
47935;BME280;33704;43.592;-79.628;2023-12-22T00:21:43;101420.97;;;32.74;18.14
47935;BME280;33704;43.592;-79.628;2023-12-22T00:22:15;101421.51;;;32.77;18.06
47935;BME280;33704;43.592;-79.628;2023-12-22T00:22:46;101419.39;;;32.82;18.36
47935;BME280;33704;43.592;-79.628;2023-12-22T00:23:18;101419.27;;;32.92;18.35
47935;BME280;33704;43.592;-79.628;2023-12-22T00:23:50;101420.20;;;32.91;18.43
47935;BME280;33704;43.592;-79.628;2023-12-22T00:24:22;101418.66;;;32.93;18.32
47935;BME280;33704;43.592;-79.628;2023-12-22T00:24:54;101418.41;;;33.01;18.45
47935;BME280;33704;43.592;-79.628;2023-12-22T00:25:26;101421.82;;;33.07;18.64
47935;BME280;33704;43.592;-79.628;2023-12-22T00:25:58;101421.79;;;33.11;18.84
47935;BME280;33704;43.592;-79.628;2023-12-22T00:26:30;101421.39;;;33.15;18.70
47935;BME280;33704;43.592;-79.628;2023-12-22T00:27:03;101419.92;;;33.17;18.86
47935;BME280;33704;43.592;-79.628;2023-12-22T00:27:35;101417.68;;;33.17;18.90
47935;BME280;33704;43.592;-79.628;2023-12-22T00:28:06;101417.95;;;33.11;18.98
47935;BME280;33704;43.592;-79.628;2023-12-22T00:28:38;101417.08;;;33.12;18.99
47935;BME280;33704;43.592;-79.628;2023-12-22T00:29:10;101419.26;;;33.18;19.07
47935;BME280;33704;43.592;-79.628;2023-12-22T00:29:43;101419.45;;;33.23;18.94
47935;BME280;33704;43.592;-79.628;2023-12-22T00:30:16;101418.30;;;33.19;19.00
47935;BME280;33704;43.592;-79.628;2023-12-22T00:30:48;101424.44;;;33.22;19.02
47935;BME280;33704;43.592;-79.628;2023-12-22T00:31:20;101417.47;;;33.27;19.15
47935;BME280;33704;43.592;-79.628;2023-12-22T00:31:52;101421.97;;;33.31;19.22
47935;BME280;33704;43.592;-79.628;2023-12-22T00:32:24;101422.44;;;33.27;19.05
47935;BME280;33704;43.592;-79.628;2023-12-22T00:32:56;101417.92;;;33.33;19.04
47935;BME280;33704;43.592;-79.628;2023-12-22T00:33:27;101420.29;;;33.37;19.08
47935;BME280;33704;43.592;-79.628;2023-12-22T00:34:00;101418.10;;;33.40;18.93
47935;BME280;33704;43.592;-79.628;2023-12-22T00:34:32;101417.11;;;33.39;19.03
47935;BME280;33704;43.592;-79.628;2023-12-22T00:35:05;101418.66;;;33.41;18.77
47935;BME280;33704;43.592;-79.628;2023-12-22T00:35:37;101417.30;;;33.40;18.88
47935;BME280;33704;43.592;-79.628;2023-12-22T00:36:08;101416.60;;;33.43;19.07
47935;BME280;33704;43.592;-79.628;2023-12-22T00:36:40;101413.71;;;33.46;19.02
47935;BME280;33704;43.592;-79.628;2023-12-22T00:37:12;101413.31;;;33.47;18.15
47935;BME280;33704;43.592;-79.628;2023-12-22T00:37:44;101413.62;;;33.50;18.60
47935;BME280;33704;43.592;-79.628;2023-12-22T00:38:16;101415.31;;;33.46;18.82
47935;BME280;33704;43.592;-79.628;2023-12-22T00:38:48;101416.51;;;33.48;18.96
47935;BME280;33704;43.592;-79.628;2023-12-22T00:39:20;101415.71;;;33.48;18.99
47935;BME280;33704;43.592;-79.628;2023-12-22T00:39:52;101418.15;;;33.46;19.05
47935;BME280;33704;43.592;-79.628;2023-12-22T00:40:24;101420.71;;;33.48;18.99
47935;BME280;33704;43.592;-79.628;2023-12-22T00:40:56;101416.02;;;33.52;18.97
47935;BME280;33704;43.592;-79.628;2023-12-22T00:41:27;101415.94;;;33.54;19.08
47935;BME280;33704;43.592;-79.628;2023-12-22T00:41:59;101415.57;;;33.56;18.92
47935;BME280;33704;43.592;-79.628;2023-12-22T00:42:31;101420.48;;;33.59;18.99
47935;BME280;33704;43.592;-79.628;2023-12-22T00:43:03;101419.41;;;33.59;18.97
47935;BME280;33704;43.592;-79.628;2023-12-22T00:43:35;101418.83;;;33.59;19.01
47935;BME280;33704;43.592;-79.628;2023-12-22T00:44:07;101416.48;;;33.56;19.08
47935;BME280;33704;43.592;-79.628;2023-12-22T00:44:39;101422.54;;;33.60;19.02
47935;BME280;33704;43.592;-79.628;2023-12-22T00:45:12;101417.25;;;33.58;19.05
47935;BME280;33704;43.592;-79.628;2023-12-22T00:45:43;101417.27;;;33.57;19.01
47935;BME280;33704;43.592;-79.628;2023-12-22T00:46:15;101416.74;;;33.62;18.90
47935;BME280;33704;43.592;-79.628;2023-12-22T00:46:47;101416.60;;;33.61;18.93
47935;BME280;33704;43.592;-79.628;2023-12-22T00:47:19;101419.29;;;33.64;18.97
47935;BME280;33704;43.592;-79.628;2023-12-22T00:47:51;101416.52;;;33.65;18.88
47935;BME280;33704;43.592;-79.628;2023-12-22T00:48:23;101418.57;;;33.66;18.91
47935;BME280;33704;43.592;-79.628;2023-12-22T00:48:55;101417.49;;;33.67;18.89
47935;BME280;33704;43.592;-79.628;2023-12-22T00:49:27;101417.59;;;33.64;19.15
47935;BME280;33704;43.592;-79.628;2023-12-22T00:49:59;101416.93;;;33.64;18.98
47935;BME280;33704;43.592;-79.628;2023-12-22T00:50:31;101424.62;;;33.66;18.96
47935;BME280;33704;43.592;-79.628;2023-12-22T00:51:05;101419.89;;;33.66;18.96
47935;BME280;33704;43.592;-79.628;2023-12-22T00:51:37;101414.04;;;33.67;18.88
47935;BME280;33704;43.592;-79.628;2023-12-22T00:52:09;101418.34;;;33.69;18.89
47935;BME280;33704;43.592;-79.628;2023-12-22T00:52:41;101422.00;;;33.72;18.84
47935;BME280;33704;43.592;-79.628;2023-12-22T00:53:14;101422.71;;;33.67;18.86
47935;BME280;33704;43.592;-79.628;2023-12-22T00:53:45;101420.37;;;33.70;18.89
47935;BME280;33704;43.592;-79.628;2023-12-22T00:54:17;101416.11;;;33.71;18.85
47935;BME280;33704;43.592;-79.628;2023-12-22T00:54:49;101414.95;;;33.69;18.84
47935;BME280;33704;43.592;-79.628;2023-12-22T00:55:21;101416.28;;;33.69;18.83
47935;BME280;33704;43.592;-79.628;2023-12-22T00:55:53;101415.07;;;33.68;18.98
47935;BME280;33704;43.592;-79.628;2023-12-22T00:56:25;101416.39;;;33.68;18.97
47935;BME280;33704;43.592;-79.628;2023-12-22T00:56:56;101415.45;;;33.67;19.06
47935;BME280;33704;43.592;-79.628;2023-12-22T00:57:28;101415.25;;;33.70;19.06
47935;BME280;33704;43.592;-79.628;2023-12-22T00:58:00;101413.94;;;33.75;19.15
47935;BME280;33704;43.592;-79.628;2023-12-22T00:58:32;101418.07;;;33.80;19.11
47935;BME280;33704;43.592;-79.628;2023-12-22T00:59:04;101416.18;;;33.77;19.07
47935;BME280;33704;43.592;-79.628;2023-12-22T00:59:36;101413.07;;;33.78;19.15
47935;BME280;33704;43.592;-79.628;2023-12-22T01:00:13;101413.23;;;33.81;19.08
47935;BME280;33704;43.592;-79.628;2023-12-22T01:00:45;101414.11;;;33.80;19.12
47935;BME280;33704;43.592;-79.628;2023-12-22T01:01:17;101414.78;;;33.84;19.06
47935;BME280;33704;43.592;-79.628;2023-12-22T01:01:49;101414.82;;;33.78;19.09
47935;BME280;33704;43.592;-79.628;2023-12-22T01:02:21;101414.27;;;33.81;19.10
47935;BME280;33704;43.592;-79.628;2023-12-22T01:02:53;101418.04;;;33.82;19.15
47935;BME280;33704;43.592;-79.628;2023-12-22T01:03:25;101414.55;;;33.83;19.02
47935;BME280;33704;43.592;-79.628;2023-12-22T01:03:57;101411.67;;;33.85;19.03
47935;BME280;33704;43.592;-79.628;2023-12-22T01:04:29;101412.24;;;33.86;19.02
47935;BME280;33704;43.592;-79.628;2023-12-22T01:05:02;101413.24;;;33.87;18.98
47935;BME280;33704;43.592;-79.628;2023-12-22T01:05:34;101414.32;;;33.87;18.99
47935;BME280;33704;43.592;-79.628;2023-12-22T01:06:06;101411.23;;;33.93;18.93
47935;BME280;33704;43.592;-79.628;2023-12-22T01:06:38;101406.22;;;33.94;18.88
47935;BME280;33704;43.592;-79.628;2023-12-22T01:07:10;101407.90;;;33.91;18.86
47935;BME280;33704;43.592;-79.628;2023-12-22T01:07:43;101406.95;;;33.89;18.98
47935;BME280;33704;43.592;-79.628;2023-12-22T01:08:15;101403.58;;;33.90;18.94
47935;BME280;33704;43.592;-79.628;2023-12-22T01:08:47;101406.36;;;33.91;18.92
47935;BME280;33704;43.592;-79.628;2023-12-22T01:09:19;101412.79;;;33.91;18.84
47935;BME280;33704;43.592;-79.628;2023-12-22T01:09:51;101406.23;;;33.95;18.83
47935;BME280;33704;43.592;-79.628;2023-12-22T01:10:23;101404.81;;;33.95;18.82
47935;BME280;33704;43.592;-79.628;2023-12-22T01:10:55;101405.40;;;33.97;18.71
47935;BME280;33704;43.592;-79.628;2023-12-22T01:11:27;101407.73;;;33.92;18.71
47935;BME280;33704;43.592;-79.628;2023-12-22T01:11:58;101406.25;;;33.92;18.68
47935;BME280;33704;43.592;-79.628;2023-12-22T01:12:30;101407.47;;;33.92;18.69
47935;BME280;33704;43.592;-79.628;2023-12-22T01:13:03;101407.52;;;33.95;18.76
47935;BME280;33704;43.592;-79.628;2023-12-22T01:13:35;101404.85;;;33.92;18.77
47935;BME280;33704;43.592;-79.628;2023-12-22T01:14:07;101403.85;;;33.91;18.78
47935;BME280;33704;43.592;-79.628;2023-12-22T01:14:39;101404.29;;;33.95;18.73
47935;BME280;33704;43.592;-79.628;2023-12-22T01:15:12;101405.20;;;33.97;18.75
47935;BME280;33704;43.592;-79.628;2023-12-22T01:15:43;101405.89;;;33.96;18.82
47935;BME280;33704;43.592;-79.628;2023-12-22T01:16:15;101402.22;;;33.97;18.80
47935;BME280;33704;43.592;-79.628;2023-12-22T01:16:47;101400.47;;;33.98;18.86
47935;BME280;33704;43.592;-79.628;2023-12-22T01:17:19;101403.65;;;33.96;18.90
47935;BME280;33704;43.592;-79.628;2023-12-22T01:17:51;101399.64;;;33.99;18.97
47935;BME280;33704;43.592;-79.628;2023-12-22T01:18:23;101404.90;;;33.98;19.01
47935;BME280;33704;43.592;-79.628;2023-12-22T01:18:56;101400.88;;;33.97;18.97
47935;BME280;33704;43.592;-79.628;2023-12-22T01:19:29;101402.77;;;33.91;19.01
47935;BME280;33704;43.592;-79.628;2023-12-22T01:20:02;101400.65;;;33.92;18.70
47935;BME280;33704;43.592;-79.628;2023-12-22T01:20:34;101399.18;;;33.92;18.80
47935;BME280;33704;43.592;-79.628;2023-12-22T01:21:06;101401.29;;;33.93;18.88
47935;BME280;33704;43.592;-79.628;2023-12-22T01:21:37;101397.37;;;33.99;18.84
47935;BME280;33704;43.592;-79.628;2023-12-22T01:22:09;101399.01;;;34.01;18.86
47935;BME280;33704;43.592;-79.628;2023-12-22T01:22:42;101400.89;;;34.02;18.90
47935;BME280;33704;43.592;-79.628;2023-12-22T01:23:14;101401.01;;;34.08;18.99
47935;BME280;33704;43.592;-79.628;2023-12-22T01:23:46;101401.27;;;34.06;18.81
47935;BME280;33704;43.592;-79.628;2023-12-22T01:24:17;101395.53;;;34.07;18.78
47935;BME280;33704;43.592;-79.628;2023-12-22T01:24:49;101396.77;;;34.05;18.70
47935;BME280;33704;43.592;-79.628;2023-12-22T01:25:21;101396.16;;;34.06;18.73
47935;BME280;33704;43.592;-79.628;2023-12-22T01:25:53;101395.10;;;34.03;18.78
47935;BME280;33704;43.592;-79.628;2023-12-22T01:26:25;101401.38;;;34.03;18.78
47935;BME280;33704;43.592;-79.628;2023-12-22T01:26:57;101394.44;;;34.06;18.82
47935;BME280;33704;43.592;-79.628;2023-12-22T01:27:29;101396.44;;;34.06;18.76
47935;BME280;33704;43.592;-79.628;2023-12-22T01:28:02;101394.55;;;34.07;18.80
47935;BME280;33704;43.592;-79.628;2023-12-22T01:28:34;101397.11;;;34.07;18.89
47935;BME280;33704;43.592;-79.628;2023-12-22T01:29:06;101397.20;;;34.10;18.89
47935;BME280;33704;43.592;-79.628;2023-12-22T01:29:38;101395.06;;;34.10;18.85
47935;BME280;33704;43.592;-79.628;2023-12-22T01:30:16;101389.15;;;34.07;18.82
47935;BME280;33704;43.592;-79.628;2023-12-22T01:30:48;101391.94;;;34.09;18.71
47935;BME280;33704;43.592;-79.628;2023-12-22T01:31:19;101391.01;;;34.09;18.74
47935;BME280;33704;43.592;-79.628;2023-12-22T01:31:52;101388.75;;;34.10;18.73
47935;BME280;33704;43.592;-79.628;2023-12-22T01:32:24;101393.34;;;34.12;18.78
47935;BME280;33704;43.592;-79.628;2023-12-22T01:32:55;101391.70;;;34.10;18.82
47935;BME280;33704;43.592;-79.628;2023-12-22T01:33:27;101391.13;;;34.08;18.87
47935;BME280;33704;43.592;-79.628;2023-12-22T01:33:59;101397.12;;;34.06;18.82
47935;BME280;33704;43.592;-79.628;2023-12-22T01:34:32;101396.61;;;34.08;18.79
47935;BME280;33704;43.592;-79.628;2023-12-22T01:35:05;101390.10;;;34.07;18.82
47935;BME280;33704;43.592;-79.628;2023-12-22T01:35:37;101396.47;;;34.10;18.73
47935;BME280;33704;43.592;-79.628;2023-12-22T01:36:09;101398.44;;;34.06;18.76
47935;BME280;33704;43.592;-79.628;2023-12-22T01:36:41;101393.61;;;34.04;18.83
47935;BME280;33704;43.592;-79.628;2023-12-22T01:37:13;101385.41;;;34.05;18.70
47935;BME280;33704;43.592;-79.628;2023-12-22T01:37:45;101392.81;;;34.04;18.69
47935;BME280;33704;43.592;-79.628;2023-12-22T01:38:17;101389.46;;;34.05;18.71
47935;BME280;33704;43.592;-79.628;2023-12-22T01:38:49;101386.72;;;34.05;18.70
47935;BME280;33704;43.592;-79.628;2023-12-22T01:39:21;101386.34;;;34.05;18.70
47935;BME280;33704;43.592;-79.628;2023-12-22T01:39:53;101387.36;;;34.10;18.64
47935;BME280;33704;43.592;-79.628;2023-12-22T01:40:25;101388.00;;;34.11;18.64
47935;BME280;33704;43.592;-79.628;2023-12-22T01:40:57;101385.32;;;34.13;18.65
47935;BME280;33704;43.592;-79.628;2023-12-22T01:41:28;101385.87;;;34.11;18.80
47935;BME280;33704;43.592;-79.628;2023-12-22T01:42:00;101387.70;;;34.10;18.60
47935;BME280;33704;43.592;-79.628;2023-12-22T01:42:32;101383.62;;;34.12;18.59
47935;BME280;33704;43.592;-79.628;2023-12-22T01:43:09;101386.46;;;34.11;18.60
47935;BME280;33704;43.592;-79.628;2023-12-22T01:43:41;101386.66;;;34.14;18.63
47935;BME280;33704;43.592;-79.628;2023-12-22T01:44:13;101388.62;;;34.20;18.59
47935;BME280;33704;43.592;-79.628;2023-12-22T01:44:45;101390.55;;;34.14;18.75
47935;BME280;33704;43.592;-79.628;2023-12-22T01:45:17;101388.47;;;34.08;18.71
47935;BME280;33704;43.592;-79.628;2023-12-22T01:45:49;101395.56;;;34.08;18.52
47935;BME280;33704;43.592;-79.628;2023-12-22T01:47:15;101385.02;;;34.04;18.53
47935;BME280;33704;43.592;-79.628;2023-12-22T01:47:47;101383.93;;;34.02;18.59
47935;BME280;33704;43.592;-79.628;2023-12-22T01:48:19;101384.90;;;34.06;18.52
47935;BME280;33704;43.592;-79.628;2023-12-22T01:49:02;101385.15;;;34.05;18.49
47935;BME280;33704;43.592;-79.628;2023-12-22T01:49:34;101383.26;;;34.06;18.53
47935;BME280;33704;43.592;-79.628;2023-12-22T01:50:07;101380.37;;;34.07;18.56
47935;BME280;33704;43.592;-79.628;2023-12-22T01:50:39;101380.65;;;34.09;18.50
47935;BME280;33704;43.592;-79.628;2023-12-22T01:51:11;101379.90;;;34.08;18.46
47935;BME280;33704;43.592;-79.628;2023-12-22T01:51:51;101382.34;;;34.13;18.46
47935;BME280;33704;43.592;-79.628;2023-12-22T01:52:25;101379.82;;;34.15;18.45
47935;BME280;33704;43.592;-79.628;2023-12-22T01:52:57;101382.30;;;34.17;18.45
47935;BME280;33704;43.592;-79.628;2023-12-22T01:53:29;101377.80;;;34.18;18.42
47935;BME280;33704;43.592;-79.628;2023-12-22T01:54:04;101373.77;;;34.16;18.43
47935;BME280;33704;43.592;-79.628;2023-12-22T01:54:37;101375.77;;;34.13;18.42
47935;BME280;33704;43.592;-79.628;2023-12-22T01:55:10;101368.60;;;34.09;18.48
47935;BME280;33704;43.592;-79.628;2023-12-22T01:55:43;101373.32;;;34.06;18.52
47935;BME280;33704;43.592;-79.628;2023-12-22T01:56:17;101376.68;;;34.04;18.48
47935;BME280;33704;43.592;-79.628;2023-12-22T01:56:49;101377.04;;;34.08;18.47
47935;BME280;33704;43.592;-79.628;2023-12-22T01:57:22;101375.61;;;34.11;18.48
47935;BME280;33704;43.592;-79.628;2023-12-22T01:57:54;101373.32;;;34.09;18.52
47935;BME280;33704;43.592;-79.628;2023-12-22T01:58:27;101372.61;;;34.11;18.47
47935;BME280;33704;43.592;-79.628;2023-12-22T01:59:02;101372.39;;;34.11;18.46
47935;BME280;33704;43.592;-79.628;2023-12-22T01:59:35;101374.06;;;34.09;18.50
47935;BME280;33704;43.592;-79.628;2023-12-22T02:00:10;101368.97;;;34.10;18.45
47935;BME280;33704;43.592;-79.628;2023-12-22T02:00:42;101369.71;;;34.09;18.46
47935;BME280;33704;43.592;-79.628;2023-12-22T02:01:15;101368.47;;;34.10;18.58
47935;BME280;33704;43.592;-79.628;2023-12-22T02:01:47;101366.42;;;34.08;18.51
47935;BME280;33704;43.592;-79.628;2023-12-22T02:02:19;101363.82;;;34.01;18.54
47935;BME280;33704;43.592;-79.628;2023-12-22T02:02:51;101365.60;;;33.96;18.63
47935;BME280;33704;43.592;-79.628;2023-12-22T02:03:24;101366.04;;;33.92;18.73
47935;BME280;33704;43.592;-79.628;2023-12-22T02:03:57;101363.78;;;33.91;18.74
47935;BME280;33704;43.592;-79.628;2023-12-22T02:04:31;101366.81;;;33.93;18.31
47935;BME280;33704;43.592;-79.628;2023-12-22T02:05:04;101365.50;;;33.92;18.20
47935;BME280;33704;43.592;-79.628;2023-12-22T02:05:37;101366.70;;;34.02;18.04
47935;BME280;33704;43.592;-79.628;2023-12-22T02:06:09;101366.68;;;34.09;17.94
47935;BME280;33704;43.592;-79.628;2023-12-22T02:06:42;101364.70;;;34.09;18.35
47935;BME280;33704;43.592;-79.628;2023-12-22T02:07:14;101367.39;;;34.15;18.20
47935;BME280;33704;43.592;-79.628;2023-12-22T02:07:46;101362.88;;;34.13;18.18
47935;BME280;33704;43.592;-79.628;2023-12-22T02:08:19;101363.86;;;34.16;18.11
47935;BME280;33704;43.592;-79.628;2023-12-22T02:08:52;101366.03;;;34.22;18.03
47935;BME280;33704;43.592;-79.628;2023-12-22T02:09:25;101363.20;;;34.24;18.01
47935;BME280;33704;43.592;-79.628;2023-12-22T02:09:57;101361.65;;;34.31;18.08
47935;BME280;33704;43.592;-79.628;2023-12-22T02:10:29;101362.83;;;34.28;18.18
47935;BME280;33704;43.592;-79.628;2023-12-22T02:11:02;101364.09;;;34.27;18.17
47935;BME280;33704;43.592;-79.628;2023-12-22T02:11:34;101363.47;;;34.26;18.20
47935;BME280;33704;43.592;-79.628;2023-12-22T02:12:06;101366.65;;;34.25;18.21
47935;BME280;33704;43.592;-79.628;2023-12-22T02:12:38;101363.87;;;34.29;18.20
47935;BME280;33704;43.592;-79.628;2023-12-22T02:13:10;101363.62;;;34.29;18.24
47935;BME280;33704;43.592;-79.628;2023-12-22T02:13:43;101366.11;;;34.27;18.28
47935;BME280;33704;43.592;-79.628;2023-12-22T02:14:15;101363.29;;;34.26;18.25
47935;BME280;33704;43.592;-79.628;2023-12-22T02:14:47;101368.81;;;34.25;18.25
47935;BME280;33704;43.592;-79.628;2023-12-22T02:15:19;101366.09;;;34.34;18.17
47935;BME280;33704;43.592;-79.628;2023-12-22T02:15:59;101362.43;;;34.36;18.20
47935;BME280;33704;43.592;-79.628;2023-12-22T02:16:39;101361.04;;;34.29;18.25
47935;BME280;33704;43.592;-79.628;2023-12-22T02:17:17;101359.91;;;34.31;18.22
47935;BME280;33704;43.592;-79.628;2023-12-22T02:17:58;101361.67;;;34.28;18.27
47935;BME280;33704;43.592;-79.628;2023-12-22T02:18:34;101363.24;;;34.32;18.28
47935;BME280;33704;43.592;-79.628;2023-12-22T02:19:21;101362.72;;;34.27;18.40
47935;BME280;33704;43.592;-79.628;2023-12-22T02:19:58;101362.82;;;34.25;18.43
47935;BME280;33704;43.592;-79.628;2023-12-22T02:20:32;101363.86;;;34.29;18.38
47935;BME280;33704;43.592;-79.628;2023-12-22T02:21:04;101364.18;;;34.32;18.41
47935;BME280;33704;43.592;-79.628;2023-12-22T02:21:36;101365.67;;;34.30;18.47
47935;BME280;33704;43.592;-79.628;2023-12-22T02:22:09;101369.39;;;34.25;18.48
47935;BME280;33704;43.592;-79.628;2023-12-22T02:22:41;101367.85;;;34.26;18.52
47935;BME280;33704;43.592;-79.628;2023-12-22T02:23:13;101367.45;;;34.28;18.52
47935;BME280;33704;43.592;-79.628;2023-12-22T02:23:47;101368.69;;;34.28;18.57
47935;BME280;33704;43.592;-79.628;2023-12-22T02:24:19;101368.62;;;34.29;18.53
47935;BME280;33704;43.592;-79.628;2023-12-22T02:24:51;101367.47;;;34.27;18.57
47935;BME280;33704;43.592;-79.628;2023-12-22T02:25:23;101369.84;;;34.26;18.58
47935;BME280;33704;43.592;-79.628;2023-12-22T02:26:02;101368.71;;;34.27;18.58
47935;BME280;33704;43.592;-79.628;2023-12-22T02:26:44;101369.49;;;34.25;18.57
47935;BME280;33704;43.592;-79.628;2023-12-22T02:27:25;101368.58;;;34.28;18.51
47935;BME280;33704;43.592;-79.628;2023-12-22T02:28:04;101369.39;;;34.29;18.53
47935;BME280;33704;43.592;-79.628;2023-12-22T02:28:37;101366.68;;;34.29;18.52
47935;BME280;33704;43.592;-79.628;2023-12-22T02:29:11;101366.40;;;34.25;18.57
47935;BME280;33704;43.592;-79.628;2023-12-22T02:29:50;101369.34;;;34.30;18.56
47935;BME280;33704;43.592;-79.628;2023-12-22T02:30:26;101371.44;;;34.34;18.49
47935;BME280;33704;43.592;-79.628;2023-12-22T02:31:04;101368.00;;;34.32;18.51
47935;BME280;33704;43.592;-79.628;2023-12-22T02:31:43;101365.01;;;34.28;18.53
47935;BME280;33704;43.592;-79.628;2023-12-22T02:32:24;101364.92;;;34.29;18.50
47935;BME280;33704;43.592;-79.628;2023-12-22T02:33:00;101361.58;;;34.24;18.53
47935;BME280;33704;43.592;-79.628;2023-12-22T02:33:34;101360.64;;;34.19;18.58
47935;BME280;33704;43.592;-79.628;2023-12-22T02:34:11;101360.50;;;34.25;18.51
47935;BME280;33704;43.592;-79.628;2023-12-22T02:34:46;101361.11;;;34.22;18.55
47935;BME280;33704;43.592;-79.628;2023-12-22T02:35:24;101359.75;;;34.21;18.69
47935;BME280;33704;43.592;-79.628;2023-12-22T02:36:01;101361.37;;;34.20;18.64
47935;BME280;33704;43.592;-79.628;2023-12-22T02:36:36;101361.23;;;34.19;18.64
47935;BME280;33704;43.592;-79.628;2023-12-22T02:37:11;101360.58;;;34.14;18.71
47935;BME280;33704;43.592;-79.628;2023-12-22T02:37:46;101359.51;;;34.17;18.70
47935;BME280;33704;43.592;-79.628;2023-12-22T02:38:18;101361.79;;;34.15;18.73
47935;BME280;33704;43.592;-79.628;2023-12-22T02:38:52;101362.24;;;34.14;18.74
47935;BME280;33704;43.592;-79.628;2023-12-22T02:39:25;101361.61;;;34.13;18.75
47935;BME280;33704;43.592;-79.628;2023-12-22T02:39:57;101360.86;;;34.12;18.78
47935;BME280;33704;43.592;-79.628;2023-12-22T02:40:30;101362.13;;;34.12;18.78
47935;BME280;33704;43.592;-79.628;2023-12-22T02:41:03;101363.47;;;34.12;18.77
47935;BME280;33704;43.592;-79.628;2023-12-22T02:41:36;101369.15;;;33.97;16.49
47935;BME280;33704;43.592;-79.628;2023-12-22T02:42:07;101368.18;;;33.74;16.24
47935;BME280;33704;43.592;-79.628;2023-12-22T02:42:40;101368.27;;;33.68;16.68
47935;BME280;33704;43.592;-79.628;2023-12-22T02:43:13;101366.54;;;33.68;17.05
47935;BME280;33704;43.592;-79.628;2023-12-22T02:43:44;101367.20;;;33.67;17.30
47935;BME280;33704;43.592;-79.628;2023-12-22T02:44:17;101365.79;;;33.71;17.66
47935;BME280;33704;43.592;-79.628;2023-12-22T02:44:49;101364.88;;;33.66;17.88
47935;BME280;33704;43.592;-79.628;2023-12-22T02:45:22;101361.92;;;33.74;17.97
47935;BME280;33704;43.592;-79.628;2023-12-22T02:45:54;101360.82;;;33.74;18.07
47935;BME280;33704;43.592;-79.628;2023-12-22T02:46:26;101359.71;;;33.75;18.15
47935;BME280;33704;43.592;-79.628;2023-12-22T02:46:58;101359.87;;;33.72;18.20
47935;BME280;33704;43.592;-79.628;2023-12-22T02:47:30;101360.18;;;33.77;18.18
47935;BME280;33704;43.592;-79.628;2023-12-22T02:48:04;101358.92;;;33.80;18.27